createdAt,value
2019-06-07T00:01:40.840Z,10.13
2019-06-07T00:06:43.231Z,8.23
2019-06-07T00:11:45.511Z,6.77
2019-06-07T00:16:47.778Z,8.33
2019-06-07T00:26:59.131Z,7.40
2019-06-07T00:31:58.156Z,6.77
2019-06-07T00:37:00.488Z,7.87
2019-06-07T00:42:02.837Z,6.60
2019-06-07T00:47:05.243Z,6.20
2019-06-07T00:52:07.508Z,6.80
2019-06-07T00:57:09.810Z,8.27
2019-06-07T01:02:14.568Z,8.03
2019-06-07T01:07:18.360Z,6.37
2019-06-07T01:12:22.088Z,6.10
2019-06-07T01:17:40.048Z,8.47
2019-06-07T01:22:29.941Z,9.43
2019-06-07T01:27:32.260Z,7.13
2019-06-07T01:32:34.555Z,8.00
2019-06-07T01:37:36.817Z,8.03
2019-06-07T01:42:39.120Z,7.20
2019-06-07T01:47:41.413Z,6.37
2019-06-07T01:52:43.722Z,7.20
2019-06-07T01:57:48.498Z,11.03
2019-06-07T02:02:50.205Z,6.53
2019-06-07T02:07:52.892Z,5.47
2019-06-07T02:12:55.168Z,6.77
2019-06-07T02:17:57.446Z,5.10
2019-06-07T02:22:59.714Z,6.43
2019-06-07T02:28:26.531Z,8.47
2019-06-07T02:33:06.224Z,7.70
2019-06-07T02:38:08.531Z,6.70
2019-06-07T02:43:10.879Z,6.77
2019-06-07T02:48:13.165Z,6.60
2019-06-07T02:53:15.409Z,6.20
2019-06-07T02:58:17.753Z,9.83
2019-06-07T03:03:22.130Z,6.43
2019-06-07T03:08:24.298Z,5.87
2019-06-07T03:13:28.926Z,6.50
2019-06-07T03:18:52.299Z,6.17
2019-06-07T03:23:55.820Z,6.27
2019-06-07T03:28:58.178Z,6.17
2019-06-07T03:34:00.814Z,7.77
2019-06-07T03:39:04.646Z,6.33
2019-06-07T03:44:06.930Z,5.25
2019-06-07T03:49:09.192Z,6.73
2019-06-07T03:54:11.452Z,6.80
2019-06-07T03:59:13.739Z,8.00
2019-06-07T04:04:16.007Z,7.10
2019-06-07T04:09:18.400Z,6.67
2019-06-07T04:14:20.687Z,7.17
2019-06-07T04:19:22.983Z,8.93
2019-06-07T04:24:25.336Z,10.23
2019-06-07T04:29:34.064Z,10.23
2019-06-07T04:34:34.990Z,6.60
2019-06-07T04:39:38.899Z,6.93
2019-06-07T04:44:42.598Z,7.52
2019-06-07T04:49:44.386Z,8.03
2019-06-07T04:54:46.702Z,6.53
2019-06-07T05:00:33.582Z,8.30
2019-06-07T05:04:53.060Z,6.37
2019-06-07T05:09:55.321Z,6.47
2019-06-07T05:14:57.620Z,6.87
2019-06-07T05:19:59.881Z,6.87
2019-06-07T05:25:02.228Z,6.62
2019-06-07T05:30:23.751Z,9.48
2019-06-07T05:35:10.441Z,6.30
2019-06-07T05:40:14.312Z,5.63
2019-06-07T05:45:18.143Z,8.08
2019-06-07T05:50:39.089Z,6.97
2019-06-07T05:55:24.615Z,8.55
2019-06-07T06:00:27.041Z,7.45
2019-06-07T06:05:34.215Z,6.85
2019-06-07T06:10:33.970Z,6.55
2019-06-07T06:15:46.275Z,7.42
2019-06-07T06:21:06.858Z,8.98
2019-06-07T06:25:52.433Z,6.15
2019-06-07T06:30:49.959Z,11.33
2019-06-07T06:35:52.406Z,6.95
2019-06-07T06:41:13.925Z,5.90
2019-06-07T06:45:58.714Z,4.35
2019-06-07T06:51:01.080Z,5.97
2019-06-07T06:56:03.415Z,6.25
2019-06-07T07:01:07.190Z,4.87
2019-06-07T07:06:25.409Z,5.62
2019-06-07T07:11:13.960Z,5.67
2019-06-07T07:16:16.274Z,6.28
2019-06-07T07:21:18.615Z,5.60
2019-06-07T07:26:20.928Z,7.92
2019-06-07T07:31:23.325Z,4.05
2019-06-07T07:36:38.926Z,6.70
2019-06-07T07:41:29.653Z,7.50
2019-06-07T07:46:31.933Z,5.42
2019-06-07T07:51:34.216Z,6.22
2019-06-07T07:56:36.497Z,8.65
2019-06-07T08:01:38.792Z,7.53
2019-06-07T08:06:41.061Z,7.10
2019-06-07T08:11:43.430Z,10.20
2019-06-07T08:16:46.792Z,12.60
2019-06-07T08:21:50.603Z,6.75
2019-06-07T08:27:17.883Z,7.67
2019-06-07T08:31:58.684Z,6.28
2019-06-07T08:37:01.921Z,5.85
2019-06-07T08:42:15.200Z,6.85
2019-06-07T08:47:20.148Z,4.72
2019-06-07T08:52:13.147Z,8.43
2019-06-07T08:57:21.297Z,5.80
2019-06-07T09:02:23.853Z,6.45
2019-06-07T09:07:23.705Z,10.50
2019-06-07T09:12:25.971Z,4.50
2019-06-07T09:17:28.331Z,7.40
2019-06-07T09:22:30.700Z,4.53
2019-06-07T09:27:33.352Z,5.47
2019-06-07T09:32:35.658Z,6.35
2019-06-07T09:38:04.510Z,4.00
2019-06-07T09:42:42.150Z,8.55
2019-06-07T09:47:44.417Z,3.77
2019-06-07T09:52:57.833Z,8.30
2019-06-07T09:57:50.707Z,9.47
2019-06-07T10:02:53.020Z,6.17
2019-06-07T10:08:09.349Z,5.50
2019-06-07T10:13:01.737Z,6.70
2019-06-07T10:18:04.869Z,4.90
2019-06-07T10:23:08.057Z,8.00
2019-06-07T10:28:10.655Z,4.92
2019-06-07T10:33:13.961Z,8.05
2019-06-07T10:38:18.946Z,3.62
2019-06-07T10:43:21.205Z,6.08
2019-06-07T10:48:25.104Z,5.50
2019-06-07T10:53:27.585Z,6.53
2019-06-07T10:58:29.917Z,4.00
2019-06-07T11:03:32.160Z,5.20
2019-06-07T11:08:34.833Z,6.15
2019-06-07T11:13:37.321Z,4.83
2019-06-07T11:18:39.689Z,7.42
2019-06-07T11:23:42.035Z,4.55
2019-06-07T11:28:44.347Z,9.75
2019-06-07T11:33:46.721Z,6.87
2019-06-07T11:38:49.420Z,7.80
2019-06-07T11:43:51.809Z,5.93
2019-06-07T11:48:54.112Z,6.40
2019-06-07T11:53:56.441Z,5.80
2019-06-07T11:58:58.764Z,4.15
2019-06-07T12:04:01.052Z,4.95
2019-06-07T12:09:04.996Z,8.53
2019-06-07T12:14:08.632Z,6.62
2019-06-07T12:19:11.854Z,5.83
2019-06-07T12:24:14.279Z,4.60
2019-06-07T12:29:17.278Z,3.30
2019-06-07T12:34:19.666Z,6.37
2019-06-07T12:39:22.292Z,4.78
2019-06-07T12:44:24.646Z,3.35
2019-06-07T12:49:26.950Z,4.62
2019-06-07T12:54:29.311Z,3.92
2019-06-07T12:59:31.761Z,3.50
2019-06-07T13:04:34.057Z,5.07
2019-06-07T13:09:36.399Z,5.40
2019-06-07T13:14:38.851Z,4.20
2019-06-07T13:19:41.366Z,4.65
2019-06-07T13:24:43.709Z,5.07
2019-06-07T13:29:46.000Z,5.10
2019-06-07T13:34:48.291Z,4.70
2019-06-07T13:39:50.567Z,4.28
2019-06-07T13:44:52.838Z,7.10
2019-06-07T13:49:55.527Z,8.23
2019-06-07T13:55:01.865Z,5.95
2019-06-07T14:00:09.908Z,6.40
2019-06-07T14:05:06.978Z,8.55
2019-06-07T14:10:11.654Z,5.78
2019-06-07T14:15:13.728Z,6.20
2019-06-07T14:20:16.356Z,10.58
2019-06-07T14:25:18.811Z,6.25
2019-06-07T14:30:21.818Z,6.05
2019-06-07T14:35:24.539Z,9.65
2019-06-07T14:40:27.962Z,10.25
2019-06-07T14:45:32.606Z,9.23
2019-06-07T14:50:34.548Z,8.88
2019-06-07T14:55:36.821Z,6.80
2019-06-07T15:00:40.656Z,5.50
2019-06-07T15:05:42.937Z,6.08
2019-06-07T15:10:45.281Z,19.20
2019-06-07T15:15:47.639Z,14.18
2019-06-07T15:20:49.921Z,27.67
2019-06-07T15:25:52.237Z,22.13
2019-06-07T15:30:54.513Z,15.08
2019-06-07T15:35:56.822Z,14.47
2019-06-07T15:40:59.949Z,13.28
2019-06-07T15:46:02.290Z,9.73
2019-06-07T15:51:04.627Z,12.88
2019-06-07T15:56:06.950Z,8.90
2019-06-07T16:01:09.294Z,7.97
2019-06-07T16:06:11.619Z,10.05
2019-06-07T16:11:13.987Z,6.92
2019-06-07T16:16:16.586Z,12.47
2019-06-07T16:21:19.091Z,5.75
2019-06-07T16:26:21.513Z,11.45
2019-06-07T16:31:23.881Z,5.67
2019-06-07T16:36:26.977Z,5.95
2019-06-07T16:41:29.305Z,3.67
2019-06-07T16:46:31.610Z,17.07
2019-06-07T16:51:33.951Z,6.05
2019-06-07T16:56:37.437Z,6.15
2019-06-07T17:01:41.008Z,14.20
2019-06-07T17:06:43.711Z,14.07
2019-06-07T17:11:46.388Z,9.55
2019-06-07T17:16:50.260Z,12.82
2019-06-07T17:21:52.826Z,8.98
2019-06-07T17:26:55.200Z,11.03
2019-06-07T17:31:57.510Z,8.98
2019-06-07T17:36:59.896Z,7.20
2019-06-07T17:42:02.835Z,10.08
2019-06-07T17:47:05.499Z,4.40
2019-06-07T17:52:07.804Z,3.67
2019-06-07T17:57:10.104Z,5.10
2019-06-07T18:02:15.251Z,2.76
2019-06-07T18:07:17.011Z,9.08
2019-06-07T18:12:19.675Z,3.12
2019-06-07T18:17:34.691Z,4.87
2019-06-07T18:22:31.671Z,6.44
2019-06-07T18:27:34.097Z,8.43
2019-06-07T18:32:36.482Z,4.58
2019-06-07T18:37:39.020Z,2.37
2019-06-07T18:42:41.444Z,3.33
2019-06-07T18:47:43.839Z,1.60
2019-06-07T18:52:46.699Z,1.90
2019-06-07T18:57:50.207Z,2.98
2019-06-07T19:02:54.003Z,2.98
2019-06-07T19:07:59.651Z,1.45
2019-06-07T19:13:01.386Z,2.40
2019-06-07T19:18:04.061Z,2.85
2019-06-07T19:23:06.688Z,3.02
2019-06-07T19:28:09.094Z,1.98
2019-06-07T19:33:11.478Z,1.10
2019-06-07T19:38:16.896Z,4.15
2019-06-07T19:43:17.908Z,3.30
2019-06-07T19:48:20.349Z,1.07
2019-06-07T19:53:22.647Z,3.37
2019-06-07T19:58:24.931Z,2.05
2019-06-07T20:03:27.249Z,3.80
2019-06-07T20:08:29.554Z,4.35
2019-06-07T20:13:31.846Z,3.12
2019-06-07T20:18:34.300Z,2.20
2019-06-07T20:23:36.688Z,2.85
2019-06-07T20:28:39.068Z,4.42
2019-06-07T20:33:41.404Z,3.83
2019-06-07T20:38:43.718Z,2.08
2019-06-07T20:43:46.203Z,2.60
2019-06-07T20:48:48.515Z,1.57
2019-06-07T20:53:50.865Z,3.17
2019-06-07T20:58:53.261Z,3.35
2019-06-07T21:03:55.598Z,1.10
2019-06-07T21:08:59.250Z,1.27
2019-06-07T21:14:01.987Z,1.80
2019-06-07T21:19:04.469Z,4.83
2019-06-07T21:24:06.844Z,2.70
2019-06-07T21:29:09.412Z,4.92
2019-06-07T21:34:13.979Z,3.20
2019-06-07T21:39:15.866Z,1.00
2019-06-07T21:44:18.234Z,2.52
2019-06-07T21:49:20.509Z,1.98
2019-06-07T21:54:22.796Z,1.17
2019-06-07T21:59:25.026Z,4.55
2019-06-07T22:04:27.595Z,1.45
2019-06-07T22:09:29.938Z,4.37
2019-06-07T22:14:32.236Z,2.57
2019-06-07T22:19:34.523Z,3.17
2019-06-07T22:24:36.805Z,3.58
2019-06-07T22:29:39.215Z,2.60
2019-06-07T22:34:41.518Z,3.52
2019-06-07T22:39:43.806Z,2.87
2019-06-07T22:44:51.558Z,3.77
2019-06-07T22:49:57.742Z,2.65
2019-06-07T22:55:03.396Z,1.57
2019-06-07T23:00:12.337Z,5.33
2019-06-07T23:05:14.713Z,1.55
2019-06-07T23:10:17.515Z,2.50
2019-06-07T23:15:20.898Z,1.82
2019-06-07T23:20:23.538Z,3.67
2019-06-07T23:25:25.814Z,4.70
2019-06-07T23:30:28.170Z,5.40
2019-06-07T23:35:30.461Z,4.43
2019-06-07T23:40:32.759Z,3.90
2019-06-07T23:45:35.043Z,3.25
2019-06-07T23:50:37.367Z,4.60
2019-06-07T23:55:39.645Z,1.87
